Time;durP1;ratioP1;P1;durP2;ratioP2;P2;SDS_P1;SDS_P2;PMS_P1;PMS_P2;Temp;Humidity;BMP_temperature;BMP_pressure;BME280_temperature;BME280_humidity;BME280_pressure;Samples;Min_cycle;Max_cycle;Signal;HPM_P1;HPM_P2
2021/12/18 00:00:36;;;;;;;17.67;5.68;;;;;;;;;;4987940;28;20062;-39
2021/12/18 00:03:02;;;;;;;18.63;6.38;;;;;;;;;;4987563;28;20045;-39
2021/12/18 00:05:28;;;;;;;22.63;6.50;;;;;;;;;;4990121;28;20074;-39
2021/12/18 00:07:54;;;;;;;22.75;5.78;;;;;;;;;;4989958;28;20034;-40
2021/12/18 00:10:23;;;;;;;24.30;6.03;;;;;;;;;;4986842;28;20058;-39
2021/12/18 00:12:49;;;;;;;24.85;6.25;;;;;;;;;;4985262;28;20025;-38
2021/12/18 00:15:19;;;;;;;24.33;6.53;;;;;;;;;;4987593;28;20034;-37
2021/12/18 00:17:45;;;;;;;16.67;4.57;;;;;;;;;;4987774;28;20034;-40
2021/12/18 00:20:14;;;;;;;14.40;5.18;;;;;;;;;;4987650;28;20500;-40
2021/12/18 00:22:40;;;;;;;13.25;5.35;;;;;;;;;;4988681;28;20049;-39
2021/12/18 00:25:06;;;;;;;12.93;4.30;;;;;;;;;;4990435;28;20062;-40
2021/12/18 00:27:32;;;;;;;16.55;5.07;;;;;;;;;;4986995;28;20026;-40
2021/12/18 00:29:58;;;;;;;14.93;4.88;;;;;;;;;;4988352;28;20580;-40
2021/12/18 00:32:24;;;;;;;13.90;5.32;;;;;;;;;;4988632;28;20030;-40
2021/12/18 00:34:50;;;;;;;14.43;5.63;;;;;;;;;;4979768;28;20041;-40
2021/12/18 00:37:16;;;;;;;17.25;5.05;;;;;;;;;;4972638;28;20113;-40
2021/12/18 00:39:45;;;;;;;14.38;5.50;;;;;;;;;;4969548;28;20026;-40
2021/12/18 00:44:55;;;;;;;17.85;5.20;;;;;;;;;;4979612;28;20057;-41
2021/12/18 00:47:21;;;;;;;18.90;6.47;;;;;;;;;;4977116;28;20489;-39
2021/12/18 00:49:47;;;;;;;21.17;6.13;;;;;;;;;;4992627;28;20034;-41
2021/12/18 00:52:13;;;;;;;18.33;5.43;;;;;;;;;;4987464;28;20054;-40
2021/12/18 00:54:39;;;;;;;19.58;5.78;;;;;;;;;;4975570;28;20061;-40
2021/12/18 00:57:06;;;;;;;18.55;5.20;;;;;;;;;;4974126;28;20030;-39
2021/12/18 00:59:33;;;;;;;14.55;5.15;;;;;;;;;;4977425;28;20034;-40
2021/12/18 01:01:59;;;;;;;16.33;4.63;;;;;;;;;;4979153;28;20545;-39
2021/12/18 01:04:26;;;;;;;18.30;5.43;;;;;;;;;;4991282;28;20022;-39
2021/12/18 01:06:52;;;;;;;13.77;5.57;;;;;;;;;;4983627;28;20070;-39
2021/12/18 01:09:24;;;;;;;15.80;5.63;;;;;;;;;;4977491;28;20073;-39
2021/12/18 01:11:50;;;;;;;13.68;5.38;;;;;;;;;;4984923;28;20026;-40
2021/12/18 01:24:47;;;;;;;12.57;4.20;;;;;;;;;;4975375;28;20042;-38
2021/12/18 01:27:13;;;;;;;15.52;4.10;;;;;;;;;;4977211;28;20113;-40
2021/12/18 01:29:39;;;;;;;14.70;4.20;;;;;;;;;;4972236;28;20101;-40
2021/12/18 01:32:06;;;;;;;13.10;4.10;;;;;;;;;;4972865;28;20112;-40
2021/12/18 01:34:32;;;;;;;12.25;3.55;;;;;;;;;;4983754;28;20089;-40
2021/12/18 01:36:58;;;;;;;13.07;3.80;;;;;;;;;;4977638;28;20022;-39
2021/12/18 01:39:24;;;;;;;9.05;3.13;;;;;;;;;;4974575;28;20158;-39
2021/12/18 01:44:49;;;;;;;5.82;2.40;;;;;;;;;;4983739;28;20030;-39
2021/12/18 01:52:38;;;;;;;5.20;2.08;;;;;;;;;;4979794;28;20544;-40
2021/12/18 01:55:06;;;;;;;4.90;2.15;;;;;;;;;;4977676;28;20049;-40
2021/12/18 01:57:32;;;;;;;6.57;2.42;;;;;;;;;;4982723;28;20066;-43
2021/12/18 01:59:59;;;;;;;7.03;2.70;;;;;;;;;;4983226;28;20034;-40
2021/12/18 02:02:25;;;;;;;6.43;2.80;;;;;;;;;;4974612;28;20470;-39
2021/12/18 02:04:51;;;;;;;10.60;3.53;;;;;;;;;;4973673;28;20088;-39
2021/12/18 02:07:18;;;;;;;8.63;3.60;;;;;;;;;;4975272;28;20097;-39
2021/12/18 02:12:15;;;;;;;7.75;3.40;;;;;;;;;;4969868;28;20062;-41
2021/12/18 02:20:40;;;;;;;7.25;3.45;;;;;;;;;;4983516;28;20042;-40
2021/12/18 02:23:06;;;;;;;8.23;3.00;;;;;;;;;;4978776;28;20033;-41
2021/12/18 02:25:34;;;;;;;8.23;3.30;;;;;;;;;;4980084;28;20484;-40
2021/12/18 02:28:01;;;;;;;7.57;2.67;;;;;;;;;;4975692;28;20030;-41
2021/12/18 02:30:27;;;;;;;9.48;2.83;;;;;;;;;;4977614;28;20023;-41
2021/12/18 02:32:54;;;;;;;7.38;2.53;;;;;;;;;;4975509;28;20031;-40
2021/12/18 02:35:31;;;;;;;6.03;2.38;;;;;;;;;;4978371;28;20027;-40
2021/12/18 02:38:10;;;;;;;7.47;2.30;;;;;;;;;;4986839;28;20465;-41
2021/12/18 02:43:17;;;;;;;5.35;2.10;;;;;;;;;;4984496;28;20042;-39
2021/12/18 02:45:43;;;;;;;7.90;2.35;;;;;;;;;;4982292;28;20503;-42
2021/12/18 02:48:09;;;;;;;6.13;1.52;;;;;;;;;;4985595;28;20054;-40
2021/12/18 02:50:39;;;;;;;8.70;1.77;;;;;;;;;;4981486;28;20027;-39
2021/12/18 02:53:06;;;;;;;6.38;2.15;;;;;;;;;;4994023;28;20036;-41
2021/12/18 02:55:32;;;;;;;7.97;2.05;;;;;;;;;;4980498;28;20386;-41
2021/12/18 02:57:58;;;;;;;8.40;1.90;;;;;;;;;;4984048;28;20035;-40
2021/12/18 03:00:26;;;;;;;5.93;2.15;;;;;;;;;;4993681;28;20493;-40
2021/12/18 03:02:52;;;;;;;7.75;2.20;;;;;;;;;;4976686;28;20038;-40
2021/12/18 03:05:25;;;;;;;9.20;2.08;;;;;;;;;;4986084;28;20046;-40
2021/12/18 03:07:59;;;;;;;5.75;2.38;;;;;;;;;;4975542;28;20343;-40
2021/12/18 03:23:50;;;;;;;12.18;2.60;;;;;;;;;;4954438;28;20040;-42
2021/12/18 03:26:16;;;;;;;7.75;2.40;;;;;;;;;;4954701;28;20037;-42
2021/12/18 03:28:42;;;;;;;7.90;2.72;;;;;;;;;;4951886;28;20094;-42
2021/12/18 03:31:09;;;;;;;9.20;2.85;;;;;;;;;;4953989;29;20537;-42
2021/12/18 03:33:35;;;;;;;8.70;2.50;;;;;;;;;;4954056;28;20281;-42
2021/12/18 03:36:01;;;;;;;12.75;2.83;;;;;;;;;;4954993;28;20371;-43
2021/12/18 03:38:27;;;;;;;16.17;3.88;;;;;;;;;;4954768;29;20023;-42
2021/12/18 03:40:53;;;;;;;12.70;3.45;;;;;;;;;;4953615;28;20035;-42
2021/12/18 03:43:19;;;;;;;8.60;3.00;;;;;;;;;;4954192;28;20031;-43
2021/12/18 03:45:45;;;;;;;11.13;3.33;;;;;;;;;;4954049;28;20465;-43
2021/12/18 03:48:11;;;;;;;10.68;3.30;;;;;;;;;;4952258;28;20454;-45
2021/12/18 03:50:37;;;;;;;10.43;3.10;;;;;;;;;;4955065;28;20022;-42
2021/12/18 03:53:03;;;;;;;16.45;3.40;;;;;;;;;;4954010;28;20035;-43
2021/12/18 03:55:29;;;;;;;15.43;3.50;;;;;;;;;;4954135;29;20347;-43
2021/12/18 03:57:55;;;;;;;10.70;3.08;;;;;;;;;;4954148;28;20565;-44
2021/12/18 04:00:21;;;;;;;10.15;3.58;;;;;;;;;;4953332;28;20045;-44
2021/12/18 04:02:47;;;;;;;13.50;3.78;;;;;;;;;;4954098;28;20027;-44
2021/12/18 04:05:13;;;;;;;12.48;4.07;;;;;;;;;;4954083;28;20561;-42
2021/12/18 04:07:42;;;;;;;11.10;4.25;;;;;;;;;;4953824;29;20026;-43
2021/12/18 04:10:12;;;;;;;12.35;3.85;;;;;;;;;;4952893;28;20031;-43
2021/12/18 04:12:38;;;;;;;12.65;4.05;;;;;;;;;;4949630;29;20122;-42
2021/12/18 04:15:05;;;;;;;14.55;4.53;;;;;;;;;;4953239;28;20111;-42
2021/12/18 04:17:31;;;;;;;14.02;4.25;;;;;;;;;;4947258;29;20070;-43
2021/12/18 04:19:57;;;;;;;10.93;3.88;;;;;;;;;;4953325;28;20102;-42
2021/12/18 04:22:24;;;;;;;13.20;3.70;;;;;;;;;;4953104;29;20027;-42
2021/12/18 04:24:50;;;;;;;14.02;4.45;;;;;;;;;;4953169;28;20086;-42
2021/12/18 04:27:16;;;;;;;8.50;3.28;;;;;;;;;;4953523;29;20023;-42
2021/12/18 04:29:42;;;;;;;17.33;4.45;;;;;;;;;;4952922;28;20050;-44
2021/12/18 04:32:08;;;;;;;10.43;3.20;;;;;;;;;;4953382;29;20486;-44
2021/12/18 04:34:34;;;;;;;13.80;3.95;;;;;;;;;;4953108;28;20070;-43
2021/12/18 04:37:00;;;;;;;11.95;3.88;;;;;;;;;;4953365;28;20766;-42
2021/12/18 04:39:26;;;;;;;14.80;4.20;;;;;;;;;;4952495;28;20027;-43
2021/12/18 04:41:57;;;;;;;10.77;3.63;;;;;;;;;;4953350;29;20070;-42
2021/12/18 04:44:23;;;;;;;13.15;3.45;;;;;;;;;;4952779;28;20085;-42
2021/12/18 04:46:49;;;;;;;17.40;4.35;;;;;;;;;;4953418;28;20513;-42
2021/12/18 04:49:15;;;;;;;17.38;4.78;;;;;;;;;;4952034;29;20051;-42
2021/12/18 04:51:41;;;;;;;19.85;5.13;;;;;;;;;;4953469;28;20042;-43
2021/12/18 04:54:08;;;;;;;14.63;4.13;;;;;;;;;;4953896;28;20102;-44
2021/12/18 04:56:34;;;;;;;14.07;4.43;;;;;;;;;;4953599;29;20027;-42
2021/12/18 04:59:00;;;;;;;20.60;4.70;;;;;;;;;;4952665;28;20059;-42
2021/12/18 05:01:26;;;;;;;16.00;4.90;;;;;;;;;;4967638;28;20023;-43
2021/12/18 05:03:52;;;;;;;19.20;4.22;;;;;;;;;;4952167;28;20099;-42
2021/12/18 05:06:18;;;;;;;15.23;3.72;;;;;;;;;;4952557;28;20418;-44
2021/12/18 05:08:44;;;;;;;18.67;4.60;;;;;;;;;;4950853;28;20028;-43
2021/12/18 05:11:10;;;;;;;18.63;4.75;;;;;;;;;;4952825;29;20028;-43
2021/12/18 05:13:36;;;;;;;21.92;4.05;;;;;;;;;;4952300;28;20446;-42
2021/12/18 05:16:02;;;;;;;19.02;4.20;;;;;;;;;;4952980;29;20055;-42
2021/12/18 05:18:28;;;;;;;15.63;4.00;;;;;;;;;;4952346;28;20031;-43
2021/12/18 05:20:54;;;;;;;19.65;4.45;;;;;;;;;;4952511;29;20054;-42
2021/12/18 05:23:20;;;;;;;22.58;5.18;;;;;;;;;;4952220;28;20035;-43
2021/12/18 05:25:46;;;;;;;19.08;4.45;;;;;;;;;;4952763;29;20051;-44
2021/12/18 05:28:13;;;;;;;15.48;4.72;;;;;;;;;;4952443;29;20036;-43
2021/12/18 05:30:39;;;;;;;16.90;4.40;;;;;;;;;;4952640;28;20023;-42
2021/12/18 05:33:05;;;;;;;21.33;4.93;;;;;;;;;;4955286;28;20051;-42
2021/12/18 05:35:32;;;;;;;20.73;4.28;;;;;;;;;;4952124;28;20059;-43
2021/12/18 05:38:04;;;;;;;22.98;5.47;;;;;;;;;;4951987;29;20033;-43
2021/12/18 05:40:31;;;;;;;23.40;5.10;;;;;;;;;;4952181;28;20035;-42
2021/12/18 05:42:57;;;;;;;17.92;3.88;;;;;;;;;;4952223;29;20031;-42
2021/12/18 05:45:23;;;;;;;27.10;4.90;;;;;;;;;;4952572;28;20111;-44
2021/12/18 05:47:50;;;;;;;31.63;5.55;;;;;;;;;;4952242;29;20106;-43
2021/12/18 05:50:17;;;;;;;22.83;5.35;;;;;;;;;;4952370;29;20050;-42
2021/12/18 05:52:45;;;;;;;19.33;4.38;;;;;;;;;;4952549;28;20711;-44
2021/12/18 05:55:11;;;;;;;24.02;4.90;;;;;;;;;;4967106;28;20613;-43
2021/12/18 05:57:37;;;;;;;19.33;4.53;;;;;;;;;;4952203;28;20032;-44
2021/12/18 06:00:05;;;;;;;20.90;5.10;;;;;;;;;;4952400;29;20069;-42
2021/12/18 06:02:31;;;;;;;18.38;5.13;;;;;;;;;;4946525;29;20115;-43
2021/12/18 06:04:57;;;;;;;13.90;4.10;;;;;;;;;;4951713;28;20099;-42
2021/12/18 06:07:31;;;;;;;16.73;5.10;;;;;;;;;;4951812;29;20473;-43
2021/12/18 06:09:58;;;;;;;11.77;3.90;;;;;;;;;;4952595;28;20031;-42
2021/12/18 06:12:24;;;;;;;16.17;4.30;;;;;;;;;;4955362;28;20026;-42
2021/12/18 06:14:50;;;;;;;12.13;4.05;;;;;;;;;;4955998;28;20039;-43
2021/12/18 06:17:16;;;;;;;12.77;3.95;;;;;;;;;;4955412;29;20118;-45
2021/12/18 06:19:42;;;;;;;16.55;4.85;;;;;;;;;;4955786;28;20084;-43
2021/12/18 06:22:08;;;;;;;17.38;4.80;;;;;;;;;;4955495;28;20129;-44
2021/12/18 06:24:34;;;;;;;16.33;4.75;;;;;;;;;;4955774;28;20114;-42
2021/12/18 06:27:00;;;;;;;10.85;4.38;;;;;;;;;;4956307;28;20067;-44
2021/12/18 06:29:26;;;;;;;14.95;4.15;;;;;;;;;;4955416;29;20049;-44
2021/12/18 06:31:52;;;;;;;9.02;3.90;;;;;;;;;;4958674;28;20066;-43
2021/12/18 06:34:18;;;;;;;10.52;3.88;;;;;;;;;;4966605;28;20020;-43
2021/12/18 06:36:44;;;;;;;11.65;3.45;;;;;;;;;;4956719;28;20035;-44
2021/12/18 06:39:10;;;;;;;10.73;3.05;;;;;;;;;;4958558;28;20327;-42
2021/12/18 06:41:36;;;;;;;11.43;3.50;;;;;;;;;;4954395;28;20027;-42
2021/12/18 06:44:03;;;;;;;5.78;2.58;;;;;;;;;;4955396;28;20038;-43
2021/12/18 06:46:28;;;;;;;10.02;2.00;;;;;;;;;;4956498;28;20022;-42
2021/12/18 06:48:55;;;;;;;7.93;2.45;;;;;;;;;;4952695;28;20483;-42
2021/12/18 06:51:21;;;;;;;11.02;2.47;;;;;;;;;;4955249;28;20026;-43
2021/12/18 06:53:47;;;;;;;4.80;2.08;;;;;;;;;;4957085;28;20039;-42
2021/12/18 06:56:13;;;;;;;8.30;2.08;;;;;;;;;;4956864;28;20043;-42
2021/12/18 06:58:39;;;;;;;6.65;2.03;;;;;;;;;;4954878;28;20426;-43
2021/12/18 07:01:05;;;;;;;8.50;1.95;;;;;;;;;;4955586;28;20066;-44
2021/12/18 07:03:33;;;;;;;4.97;1.90;;;;;;;;;;4955416;28;20066;-42
2021/12/18 07:05:59;;;;;;;6.70;1.90;;;;;;;;;;4954622;28;20019;-44
2021/12/18 07:08:25;;;;;;;6.70;2.15;;;;;;;;;;4956148;28;20038;-43
2021/12/18 07:10:51;;;;;;;6.72;2.10;;;;;;;;;;4956647;28;20047;-43
2021/12/18 07:13:17;;;;;;;5.07;1.77;;;;;;;;;;4955365;28;20027;-42
2021/12/18 07:15:43;;;;;;;4.63;1.80;;;;;;;;;;4953456;28;20051;-43
2021/12/18 07:18:09;;;;;;;7.40;1.83;;;;;;;;;;4955133;28;20083;-44
2021/12/18 07:20:35;;;;;;;6.30;2.00;;;;;;;;;;4956398;28;20130;-42
2021/12/18 07:23:01;;;;;;;6.05;2.40;;;;;;;;;;4956156;28;20670;-42
2021/12/18 07:25:28;;;;;;;7.35;2.65;;;;;;;;;;4953808;29;20031;-44
2021/12/18 07:27:54;;;;;;;8.13;2.25;;;;;;;;;;4955552;28;20027;-42
2021/12/18 07:30:20;;;;;;;8.38;2.88;;;;;;;;;;4952267;28;20058;-42
2021/12/18 07:32:46;;;;;;;5.65;2.13;;;;;;;;;;4952159;28;20502;-39
2021/12/18 07:35:13;;;;;;;7.40;2.35;;;;;;;;;;4953129;28;20066;-39
2021/12/18 07:37:39;;;;;;;6.80;2.28;;;;;;;;;;4955173;28;20062;-39
2021/12/18 07:40:09;;;;;;;6.50;2.28;;;;;;;;;;4952652;28;20078;-39
2021/12/18 07:42:35;;;;;;;8.18;1.98;;;;;;;;;;4953036;28;20134;-39
2021/12/18 07:45:01;;;;;;;4.63;1.67;;;;;;;;;;4957770;28;20090;-39
2021/12/18 07:47:27;;;;;;;5.13;2.22;;;;;;;;;;4952184;28;20033;-39
2021/12/18 07:49:53;;;;;;;10.18;2.30;;;;;;;;;;4950331;28;20019;-40
2021/12/18 07:52:19;;;;;;;4.10;2.10;;;;;;;;;;4953553;28;20027;-40
2021/12/18 07:54:46;;;;;;;5.32;1.88;;;;;;;;;;4953277;28;20094;-39
2021/12/18 07:57:12;;;;;;;4.22;1.65;;;;;;;;;;4954987;28;20115;-41
2021/12/18 07:59:38;;;;;;;5.45;1.88;;;;;;;;;;4948145;28;20074;-40
2021/12/18 08:02:05;;;;;;;5.85;2.30;;;;;;;;;;4955829;28;20537;-39
2021/12/18 08:04:31;;;;;;;4.40;1.67;;;;;;;;;;4958672;28;20023;-39
2021/12/18 08:06:57;;;;;;;7.65;2.60;;;;;;;;;;4957217;28;20514;-39
2021/12/18 08:09:23;;;;;;;7.32;2.17;;;;;;;;;;4953810;28;20108;-39
2021/12/18 08:11:49;;;;;;;5.30;1.60;;;;;;;;;;4971822;28;20031;-39
2021/12/18 08:14:15;;;;;;;7.68;1.70;;;;;;;;;;4952368;28;20062;-39
2021/12/18 08:16:41;;;;;;;4.60;1.80;;;;;;;;;;4953674;28;20038;-38
2021/12/18 08:19:07;;;;;;;5.07;2.08;;;;;;;;;;4951771;28;20031;-39
2021/12/18 08:21:33;;;;;;;5.47;1.73;;;;;;;;;;4954063;28;20058;-39
2021/12/18 08:23:59;;;;;;;4.47;1.70;;;;;;;;;;4961370;28;20537;-39
2021/12/18 08:26:26;;;;;;;7.05;1.65;;;;;;;;;;4954836;28;20065;-39
2021/12/18 08:28:51;;;;;;;5.20;2.30;;;;;;;;;;4952306;28;20066;-39
2021/12/18 08:31:17;;;;;;;4.90;1.90;;;;;;;;;;4954383;28;20447;-39
2021/12/18 08:33:44;;;;;;;5.50;1.75;;;;;;;;;;4949285;28;20054;-39
2021/12/18 08:36:10;;;;;;;3.83;1.42;;;;;;;;;;4951864;28;20394;-39
2021/12/18 08:38:36;;;;;;;5.32;1.35;;;;;;;;;;4951942;28;20609;-39
2021/12/18 08:41:02;;;;;;;3.95;1.55;;;;;;;;;;4958789;28;20035;-39
2021/12/18 08:43:28;;;;;;;3.13;1.42;;;;;;;;;;4958946;28;20051;-39
2021/12/18 08:45:54;;;;;;;2.95;1.65;;;;;;;;;;4953518;29;20627;-39
2021/12/18 08:48:21;;;;;;;2.25;1.20;;;;;;;;;;4953581;28;20027;-39
2021/12/18 08:50:47;;;;;;;4.88;1.38;;;;;;;;;;4952270;28;20034;-39
2021/12/18 08:53:13;;;;;;;3.58;1.20;;;;;;;;;;4953902;28;20070;-39
2021/12/18 08:55:39;;;;;;;2.28;1.23;;;;;;;;;;4953468;28;20059;-39
2021/12/18 08:58:05;;;;;;;1.48;0.90;;;;;;;;;;4953874;28;20055;-39
2021/12/18 09:00:33;;;;;;;2.13;1.10;;;;;;;;;;4952067;28;20050;-39
2021/12/18 09:03:00;;;;;;;2.85;1.17;;;;;;;;;;4953261;28;20054;-39
2021/12/18 09:05:26;;;;;;;1.77;1.00;;;;;;;;;;4954708;28;20134;-39
2021/12/18 09:07:52;;;;;;;1.27;0.75;;;;;;;;;;4961410;28;20690;-39
2021/12/18 09:10:18;;;;;;;1.92;1.10;;;;;;;;;;4948007;28;20019;-39
2021/12/18 09:12:44;;;;;;;2.33;0.90;;;;;;;;;;4948060;28;20475;-39
2021/12/18 09:15:11;;;;;;;2.10;0.95;;;;;;;;;;4948631;28;20046;-39
2021/12/18 09:17:37;;;;;;;1.25;0.95;;;;;;;;;;4946130;28;20020;-39
2021/12/18 09:20:04;;;;;;;5.47;1.10;;;;;;;;;;4949361;28;20437;-38
2021/12/18 09:22:30;;;;;;;2.50;0.77;;;;;;;;;;4950544;28;20110;-39
2021/12/18 09:24:56;;;;;;;2.67;0.75;;;;;;;;;;4953363;28;20107;-39
2021/12/18 09:27:22;;;;;;;2.03;0.60;;;;;;;;;;4949021;28;20082;-38
2021/12/18 09:29:48;;;;;;;3.00;1.08;;;;;;;;;;4948710;28;20666;-39
2021/12/18 09:32:14;;;;;;;1.30;0.50;;;;;;;;;;4950611;28;20659;-39
2021/12/18 09:34:41;;;;;;;2.33;0.88;;;;;;;;;;4952564;28;20562;-39
2021/12/18 09:37:07;;;;;;;1.05;0.75;;;;;;;;;;4954546;28;20019;-39
2021/12/18 09:39:33;;;;;;;3.60;0.98;;;;;;;;;;4953855;28;20023;-38
2021/12/18 09:41:59;;;;;;;2.33;1.10;;;;;;;;;;4956091;28;20170;-38
2021/12/18 09:44:30;;;;;;;2.88;0.98;;;;;;;;;;4959662;28;20015;-40
2021/12/18 09:46:56;;;;;;;2.17;1.00;;;;;;;;;;4954276;28;20066;-38
2021/12/18 09:49:22;;;;;;;2.25;1.25;;;;;;;;;;4954846;28;20054;-40
2021/12/18 09:51:49;;;;;;;3.22;1.20;;;;;;;;;;4962012;28;20027;-40
2021/12/18 09:54:15;;;;;;;1.98;1.50;;;;;;;;;;4943805;28;20068;-38
2021/12/18 09:56:41;;;;;;;3.65;2.25;;;;;;;;;;4952738;28;20019;-39
2021/12/18 09:59:07;;;;;;;5.82;3.08;;;;;;;;;;4951417;29;20061;-37
2021/12/18 10:01:34;;;;;;;4.45;2.97;;;;;;;;;;4952470;28;20043;-40
2021/12/18 10:04:01;;;;;;;4.15;2.55;;;;;;;;;;4951162;28;20027;-40
2021/12/18 10:06:41;;;;;;;4.18;2.40;;;;;;;;;;4952374;28;20023;-40
2021/12/18 10:09:28;;;;;;;4.15;2.17;;;;;;;;;;4953635;28;20023;-39
2021/12/18 10:11:55;;;;;;;4.20;2.08;;;;;;;;;;4952037;28;20102;-39
2021/12/18 10:14:33;;;;;;;6.13;2.40;;;;;;;;;;4950583;28;20062;-40
2021/12/18 10:16:59;;;;;;;5.82;2.80;;;;;;;;;;4953015;28;20069;-39
2021/12/18 10:19:26;;;;;;;9.32;3.08;;;;;;;;;;4952335;28;20113;-40
2021/12/18 10:21:57;;;;;;;6.85;2.90;;;;;;;;;;4951224;28;20035;-39
2021/12/18 10:24:23;;;;;;;5.78;3.67;;;;;;;;;;4950969;28;20031;-40
2021/12/18 10:26:49;;;;;;;8.50;3.35;;;;;;;;;;4956827;28;20057;-40
2021/12/18 10:29:34;;;;;;;7.40;2.90;;;;;;;;;;4951387;28;20031;-39
2021/12/18 10:32:14;;;;;;;6.68;2.70;;;;;;;;;;4952274;28;20023;-39
2021/12/18 10:34:41;;;;;;;10.90;3.70;;;;;;;;;;4950229;28;20031;-40
2021/12/18 10:37:08;;;;;;;7.30;4.15;;;;;;;;;;4951346;28;20031;-40
2021/12/18 10:39:34;;;;;;;14.40;3.67;;;;;;;;;;4949740;28;20047;-40
2021/12/18 10:42:14;;;;;;;8.30;3.97;;;;;;;;;;4960058;28;20027;-40
2021/12/18 10:44:54;;;;;;;8.20;4.60;;;;;;;;;;4954688;28;20019;-40
2021/12/18 10:47:20;;;;;;;13.13;4.10;;;;;;;;;;4957312;28;20474;-40
2021/12/18 10:49:46;;;;;;;12.52;3.83;;;;;;;;;;4951741;28;20031;-39
2021/12/18 10:52:12;;;;;;;15.93;4.45;;;;;;;;;;4951922;29;20038;-40
2021/12/18 10:54:38;;;;;;;14.27;4.78;;;;;;;;;;4950817;28;20110;-38
2021/12/18 10:57:04;;;;;;;22.42;5.53;;;;;;;;;;4953142;28;20483;-38
2021/12/18 10:59:32;;;;;;;16.35;5.53;;;;;;;;;;4951410;29;20142;-40
2021/12/18 11:01:59;;;;;;;15.57;4.72;;;;;;;;;;4955048;28;20037;-40
2021/12/18 11:04:26;;;;;;;14.75;5.22;;;;;;;;;;4952444;28;20042;-39
2021/12/18 11:06:55;;;;;;;18.65;4.72;;;;;;;;;;4945223;28;20028;-40
2021/12/18 11:09:28;;;;;;;10.25;5.05;;;;;;;;;;4944803;28;20107;-40
2021/12/18 11:14:33;;;;;;;18.35;5.72;;;;;;;;;;4946988;28;20380;-39
2021/12/18 11:17:00;;;;;;;21.67;5.28;;;;;;;;;;4948722;28;20054;-40
2021/12/18 11:19:28;;;;;;;20.73;5.55;;;;;;;;;;4947601;28;20047;-40
2021/12/18 11:21:56;;;;;;;26.35;6.80;;;;;;;;;;4944471;29;20023;-41
2021/12/18 11:24:23;;;;;;;22.52;7.18;;;;;;;;;;4946366;28;20027;-41
2021/12/18 11:26:57;;;;;;;19.05;4.38;;;;;;;;;;4947172;28;20030;-40
2021/12/18 11:29:28;;;;;;;21.73;5.57;;;;;;;;;;4948974;28;20055;-41
2021/12/18 11:31:55;;;;;;;23.08;4.80;;;;;;;;;;4948624;28;20015;-38
2021/12/18 11:34:21;;;;;;;20.17;4.85;;;;;;;;;;4946245;28;20027;-40
2021/12/18 11:36:49;;;;;;;26.15;5.35;;;;;;;;;;4950833;28;20426;-41
2021/12/18 11:39:16;;;;;;;14.65;4.72;;;;;;;;;;4944990;28;20038;-40
2021/12/18 11:41:47;;;;;;;19.90;4.18;;;;;;;;;;4948396;28;20098;-37
2021/12/18 11:44:25;;;;;;;19.77;5.13;;;;;;;;;;4969617;28;20447;-40
2021/12/18 11:46:51;;;;;;;22.63;3.58;;;;;;;;;;4948150;28;20055;-39
2021/12/18 11:49:19;;;;;;;22.50;4.50;;;;;;;;;;4957994;28;20035;-39
2021/12/18 11:52:01;;;;;;;22.13;5.30;;;;;;;;;;4948457;28;20367;-42
2021/12/18 11:54:41;;;;;;;35.17;5.85;;;;;;;;;;4953656;28;20036;-40
2021/12/18 11:57:07;;;;;;;22.55;4.80;;;;;;;;;;4952532;28;20023;-42
2021/12/18 11:59:38;;;;;;;19.95;5.28;;;;;;;;;;4954339;28;20027;-41
2021/12/18 12:02:04;;;;;;;23.48;5.65;;;;;;;;;;4961009;28;20186;-39
2021/12/18 12:04:50;;;;;;;30.67;5.50;;;;;;;;;;4962361;28;20032;-40
2021/12/18 12:07:19;;;;;;;20.50;5.40;;;;;;;;;;4957815;28;20069;-38
2021/12/18 12:10:05;;;;;;;25.65;4.70;;;;;;;;;;4960165;28;20027;-36
2021/12/18 12:12:47;;;;;;;23.52;5.07;;;;;;;;;;4963230;28;20034;-39
2021/12/18 12:15:14;;;;;;;28.30;5.85;;;;;;;;;;4967475;28;20043;-38
2021/12/18 12:17:53;;;;;;;25.23;4.88;;;;;;;;;;4958438;29;20036;-39
2021/12/18 12:20:53;;;;;;;19.92;4.13;;;;;;;;;;4960478;28;20094;-39
2021/12/18 12:23:19;;;;;;;19.15;4.60;;;;;;;;;;4955717;28;20039;-38
2021/12/18 12:25:47;;;;;;;17.17;4.32;;;;;;;;;;4968434;28;20050;-37
2021/12/18 12:28:19;;;;;;;14.95;4.35;;;;;;;;;;4957952;28;20031;-38
2021/12/18 12:30:47;;;;;;;22.20;4.68;;;;;;;;;;4959276;28;20067;-39
2021/12/18 12:33:21;;;;;;;18.33;4.32;;;;;;;;;;4964178;28;20031;-39
2021/12/18 12:35:57;;;;;;;26.20;4.47;;;;;;;;;;4963237;28;20027;-40
2021/12/18 12:38:26;;;;;;;17.33;4.13;;;;;;;;;;4960064;28;20114;-38
2021/12/18 12:40:53;;;;;;;28.17;5.28;;;;;;;;;;4962820;28;20039;-39
2021/12/18 12:43:28;;;;;;;27.30;5.18;;;;;;;;;;4962254;28;20062;-40
2021/12/18 12:45:58;;;;;;;27.60;5.60;;;;;;;;;;4963534;28;20058;-39
2021/12/18 12:48:24;;;;;;;13.15;5.72;;;;;;;;;;4963657;28;20038;-39
2021/12/18 12:50:55;;;;;;;24.17;4.22;;;;;;;;;;4963804;28;20047;-39
2021/12/18 12:53:21;;;;;;;14.13;4.88;;;;;;;;;;4970626;28;21765;-39
2021/12/18 12:55:49;;;;;;;17.27;4.25;;;;;;;;;;4963240;28;20138;-39
2021/12/18 12:58:16;;;;;;;25.85;4.05;;;;;;;;;;4964033;29;20635;-41
2021/12/18 13:00:44;;;;;;;29.55;4.03;;;;;;;;;;4964317;28;20031;-39
2021/12/18 13:03:12;;;;;;;20.20;3.75;;;;;;;;;;4964276;28;20091;-38
2021/12/18 13:05:46;;;;;;;27.40;4.13;;;;;;;;;;4963574;28;20015;-39
2021/12/18 13:08:12;;;;;;;20.48;4.50;;;;;;;;;;4960146;28;20039;-38
2021/12/18 13:10:39;;;;;;;21.10;4.80;;;;;;;;;;4960429;28;20110;-40
2021/12/18 13:13:06;;;;;;;14.38;3.47;;;;;;;;;;4963691;28;20030;-40
2021/12/18 13:15:48;;;;;;;33.13;4.50;;;;;;;;;;4960937;28;20502;-38
2021/12/18 13:18:15;;;;;;;26.13;6.22;;;;;;;;;;4964530;28;20113;-40
2021/12/18 13:20:41;;;;;;;15.70;4.28;;;;;;;;;;4958916;28;20074;-37
2021/12/18 13:23:07;;;;;;;29.88;4.90;;;;;;;;;;4964847;28;20030;-38
2021/12/18 13:25:33;;;;;;;25.88;5.05;;;;;;;;;;4962926;28;20043;-37
2021/12/18 13:28:06;;;;;;;23.40;4.47;;;;;;;;;;4962957;28;20099;-37
2021/12/18 13:30:35;;;;;;;29.80;4.72;;;;;;;;;;4961544;28;20494;-38
2021/12/18 13:33:03;;;;;;;21.88;4.72;;;;;;;;;;4961041;28;20041;-39
2021/12/18 13:35:30;;;;;;;16.05;4.43;;;;;;;;;;4961350;28;20103;-38
2021/12/18 13:37:57;;;;;;;19.85;3.75;;;;;;;;;;4962264;28;20035;-38
2021/12/18 13:40:23;;;;;;;26.27;4.43;;;;;;;;;;4966543;28;20062;-38
2021/12/18 13:43:02;;;;;;;20.15;3.40;;;;;;;;;;4966903;28;20035;-37
2021/12/18 13:45:28;;;;;;;17.98;4.05;;;;;;;;;;4970441;28;20024;-39
2021/12/18 13:47:55;;;;;;;23.17;7.07;;;;;;;;;;4977609;28;20037;-38
2021/12/18 13:50:22;;;;;;;25.50;4.45;;;;;;;;;;4964910;28;20031;-39
2021/12/18 13:52:54;;;;;;;39.25;6.40;;;;;;;;;;4959035;28;20070;-36
2021/12/18 13:55:28;;;;;;;14.60;4.43;;;;;;;;;;4963831;28;20051;-38
2021/12/18 13:58:03;;;;;;;31.58;3.90;;;;;;;;;;4963500;28;20038;-38
2021/12/18 14:00:44;;;;;;;24.60;3.80;;;;;;;;;;4962031;28;20513;-39
2021/12/18 14:03:16;;;;;;;21.85;4.22;;;;;;;;;;4958780;28;20042;-39
2021/12/18 14:05:42;;;;;;;22.02;4.65;;;;;;;;;;4962477;28;20035;-37
2021/12/18 14:08:08;;;;;;;30.45;4.63;;;;;;;;;;4965207;28;20019;-37
2021/12/18 14:10:34;;;;;;;23.30;4.85;;;;;;;;;;4975679;28;20019;-40
2021/12/18 14:13:00;;;;;;;25.15;4.18;;;;;;;;;;4965390;28;20028;-40
2021/12/18 14:15:26;;;;;;;33.72;6.07;;;;;;;;;;4965526;28;20085;-36
2021/12/18 14:17:52;;;;;;;24.25;5.10;;;;;;;;;;4964139;29;20031;-36
2021/12/18 14:20:18;;;;;;;26.45;4.45;;;;;;;;;;4964630;28;20038;-38
2021/12/18 14:22:44;;;;;;;32.28;4.45;;;;;;;;;;4965303;29;20526;-37
2021/12/18 14:25:12;;;;;;;29.10;4.78;;;;;;;;;;4963080;28;20029;-38
2021/12/18 14:27:48;;;;;;;28.83;4.63;;;;;;;;;;4964060;28;20099;-38
2021/12/18 14:30:19;;;;;;;23.65;4.78;;;;;;;;;;4963799;28;20051;-39
2021/12/18 14:32:46;;;;;;;25.05;5.97;;;;;;;;;;4960452;28;20027;-36
2021/12/18 14:35:14;;;;;;;22.58;4.13;;;;;;;;;;4970692;28;20050;-37
2021/12/18 14:37:51;;;;;;;17.73;3.22;;;;;;;;;;4966621;28;20028;-35
2021/12/18 14:40:19;;;;;;;21.13;4.28;;;;;;;;;;4963275;28;20204;-37
2021/12/18 14:43:07;;;;;;;25.73;4.72;;;;;;;;;;4966934;28;20026;-37
2021/12/18 14:45:34;;;;;;;27.85;6.13;;;;;;;;;;4967536;28;21713;-38
2021/12/18 14:48:01;;;;;;;22.23;5.10;;;;;;;;;;4964593;28;20031;-40
2021/12/18 14:50:32;;;;;;;21.25;5.15;;;;;;;;;;4966709;28;20027;-38
2021/12/18 14:53:00;;;;;;;30.30;5.07;;;;;;;;;;4971881;28;20038;-40
2021/12/18 14:55:28;;;;;;;33.22;5.43;;;;;;;;;;4965975;28;20054;-40
2021/12/18 14:57:58;;;;;;;33.40;6.57;;;;;;;;;;4967326;28;20371;-38
2021/12/18 15:00:26;;;;;;;24.58;4.30;;;;;;;;;;4961445;28;20038;-38
2021/12/18 15:03:01;;;;;;;20.17;5.20;;;;;;;;;;4967407;28;20108;-39
2021/12/18 15:05:46;;;;;;;27.15;5.25;;;;;;;;;;4966638;28;20027;-39
2021/12/18 15:08:23;;;;;;;23.42;3.85;;;;;;;;;;4966397;29;20107;-38
2021/12/18 15:10:56;;;;;;;31.00;8.02;;;;;;;;;;4965324;28;20023;-38
2021/12/18 15:13:24;;;;;;;36.78;6.40;;;;;;;;;;4965709;28;20031;-39
2021/12/18 15:16:10;;;;;;;23.50;4.95;;;;;;;;;;4968940;28;20086;-40
2021/12/18 15:18:37;;;;;;;19.40;4.50;;;;;;;;;;4966201;28;20097;-39
2021/12/18 15:21:03;;;;;;;26.20;4.95;;;;;;;;;;4972830;28;20038;-38
2021/12/18 15:23:29;;;;;;;36.00;4.82;;;;;;;;;;4956935;28;20028;-37
2021/12/18 15:25:55;;;;;;;31.52;4.75;;;;;;;;;;4966072;28;20023;-38
2021/12/18 15:28:22;;;;;;;27.25;5.30;;;;;;;;;;4967254;28;20054;-36